createdAt,value
2019-02-15T00:03:00.620Z,59.77
2019-02-15T00:06:02.567Z,59.70
2019-02-15T00:09:04.830Z,59.66
2019-02-15T00:12:08.623Z,59.73
2019-02-15T00:15:10.504Z,59.85
2019-02-15T00:18:14.385Z,59.79
2019-02-15T00:21:20.874Z,59.72
2019-02-15T00:24:22.864Z,59.74
2019-02-15T00:27:25.196Z,59.78
2019-02-15T00:30:27.073Z,59.74
2019-02-15T00:33:28.939Z,59.63
2019-02-15T00:36:30.824Z,59.51
2019-02-15T00:39:32.774Z,59.51
2019-02-15T00:42:34.674Z,59.51
2019-02-15T00:45:41.579Z,59.46
2019-02-15T00:48:43.583Z,59.49
2019-02-15T00:51:47.298Z,59.39
2019-02-15T00:54:51.041Z,59.28
2019-02-15T00:58:10.079Z,59.36
2019-02-15T01:01:19.800Z,59.40
2019-02-15T01:04:23.584Z,59.50
2019-02-15T01:07:30.176Z,59.56
2019-02-15T01:10:33.895Z,59.48
2019-02-15T01:13:35.813Z,59.50
2019-02-15T01:16:38.180Z,59.42
2019-02-15T01:19:40.113Z,59.40
2019-02-15T01:22:42.099Z,59.40
2019-02-15T01:25:45.787Z,59.29
2019-02-15T01:28:56.616Z,59.32
2019-02-15T01:32:03.155Z,59.33
2019-02-15T01:35:15.787Z,59.43
2019-02-15T01:38:19.565Z,59.46
2019-02-15T01:41:35.148Z,59.54
2019-02-15T01:44:41.418Z,59.48
2019-02-15T01:47:44.148Z,59.48
2019-02-15T01:50:46.217Z,59.46
2019-02-15T01:53:48.121Z,59.47
2019-02-15T01:56:49.997Z,59.54
2019-02-15T01:59:53.068Z,59.57
2019-02-15T02:02:54.975Z,59.57
2019-02-15T02:05:56.866Z,59.49
2019-02-15T02:08:58.776Z,59.35
2019-02-15T02:12:00.655Z,59.31
2019-02-15T02:15:05.429Z,59.37
2019-02-15T02:18:08.516Z,59.43
2019-02-15T02:21:10.542Z,59.47
2019-02-15T02:24:12.466Z,59.58
2019-02-15T02:27:15.587Z,59.71
2019-02-15T02:30:17.460Z,59.99
2019-02-15T02:33:19.352Z,60.23
2019-02-15T02:36:23.728Z,60.47
2019-02-15T02:39:25.702Z,60.80
2019-02-15T02:42:27.713Z,60.99
2019-02-15T02:45:32.758Z,61.08
2019-02-15T02:48:34.694Z,61.02
2019-02-15T02:51:36.713Z,60.95
2019-02-15T02:54:38.570Z,60.86
2019-02-15T02:57:40.485Z,60.78
2019-02-15T03:00:42.361Z,60.68
2019-02-15T03:03:44.256Z,60.67
2019-02-15T03:06:46.083Z,60.66
2019-02-15T03:09:48.014Z,60.55
2019-02-15T03:12:49.882Z,60.69
2019-02-15T03:15:51.721Z,60.79
2019-02-15T03:18:53.619Z,60.78
2019-02-15T03:21:55.633Z,60.68
2019-02-15T03:24:57.514Z,60.61
2019-02-15T03:27:59.491Z,60.57
2019-02-15T03:31:01.425Z,60.54
2019-02-15T03:34:03.463Z,60.53
2019-02-15T03:37:24.052Z,60.41
2019-02-15T03:40:27.911Z,60.60
2019-02-15T03:43:30.472Z,60.85
2019-02-15T03:46:32.436Z,60.89
2019-02-15T03:49:34.308Z,60.96
2019-02-15T03:52:36.662Z,61.08
2019-02-15T03:55:38.549Z,61.22
2019-02-15T03:58:40.663Z,61.40
2019-02-15T04:01:42.546Z,61.52
2019-02-15T04:04:44.766Z,61.62
2019-02-15T04:07:46.693Z,61.75
2019-02-15T04:10:49.673Z,61.83
2019-02-15T04:13:51.504Z,61.83
2019-02-15T04:16:53.846Z,61.71
2019-02-15T04:19:55.738Z,61.68
2019-02-15T04:22:57.817Z,61.69
2019-02-15T04:25:59.680Z,61.85
2019-02-15T04:29:01.663Z,61.92
2019-02-15T04:32:03.584Z,61.94
2019-02-15T04:35:06.981Z,61.84
2019-02-15T04:38:08.871Z,61.99
2019-02-15T04:41:10.784Z,62.19
2019-02-15T04:44:12.784Z,62.07
2019-02-15T04:47:14.768Z,62.05
2019-02-15T04:50:16.642Z,61.98
2019-02-15T04:53:18.720Z,61.96
2019-02-15T04:56:20.631Z,62.07
2019-02-15T04:59:22.547Z,62.07
2019-02-15T05:02:24.503Z,62.04
2019-02-15T05:05:26.376Z,61.87
2019-02-15T05:08:28.347Z,61.81
2019-02-15T05:11:30.187Z,61.80
2019-02-15T05:14:32.130Z,61.83
2019-02-15T05:17:33.980Z,61.92
2019-02-15T05:20:35.925Z,62.29
2019-02-15T05:23:37.850Z,62.41
2019-02-15T05:26:39.749Z,62.62
2019-02-15T05:29:41.669Z,62.61
2019-02-15T05:32:43.580Z,62.42
2019-02-15T05:35:45.629Z,62.28
2019-02-15T05:38:47.494Z,62.19
2019-02-15T05:41:49.424Z,62.10
2019-02-15T05:44:51.491Z,61.98
2019-02-15T05:47:53.381Z,61.84
2019-02-15T05:50:55.363Z,61.82
2019-02-15T05:53:57.383Z,61.78
2019-02-15T05:56:59.365Z,61.77
2019-02-15T06:00:01.185Z,61.76
2019-02-15T06:03:03.194Z,61.96
2019-02-15T06:06:05.183Z,62.03
2019-02-15T06:09:07.149Z,61.80
2019-02-15T06:12:09.014Z,61.60
2019-02-15T06:15:15.110Z,61.68
2019-02-15T06:18:14.815Z,61.92
2019-02-15T06:21:16.783Z,62.08
2019-02-15T06:24:18.738Z,62.08
2019-02-15T06:27:20.667Z,61.97
2019-02-15T06:30:22.541Z,61.80
2019-02-15T06:33:24.423Z,61.49
2019-02-15T06:36:28.129Z,60.94
2019-02-15T06:39:30.058Z,60.34
2019-02-15T06:42:32.007Z,59.71
2019-02-15T06:45:34.174Z,59.11
2019-02-15T06:48:36.114Z,58.54
2019-02-15T06:51:38.037Z,57.18
2019-02-15T06:54:40.142Z,54.39
2019-02-15T06:57:42.457Z,51.50
2019-02-15T07:01:00.999Z,49.22
2019-02-15T07:04:07.532Z,46.74
2019-02-15T07:07:09.421Z,44.89
2019-02-15T07:10:11.325Z,43.45
2019-02-15T07:13:14.286Z,42.33
2019-02-15T07:16:16.299Z,41.48
2019-02-15T07:19:18.263Z,40.43
2019-02-15T07:22:20.214Z,39.24
2019-02-15T07:25:22.274Z,38.07
2019-02-15T07:28:24.262Z,36.97
2019-02-15T07:31:26.154Z,35.47
2019-02-15T07:34:28.186Z,34.74
2019-02-15T07:37:30.078Z,33.27
2019-02-15T07:40:32.913Z,31.31
2019-02-15T07:43:34.936Z,29.05
2019-02-15T07:46:36.807Z,27.49
2019-02-15T07:49:38.793Z,26.60
2019-02-15T07:52:40.726Z,25.98
2019-02-15T07:55:42.894Z,24.74
2019-02-15T07:58:44.793Z,24.05
2019-02-15T08:01:46.778Z,23.34
2019-02-15T08:04:48.670Z,22.68
2019-02-15T08:07:50.613Z,22.39
2019-02-15T08:10:52.641Z,21.67
2019-02-15T08:13:54.508Z,21.24
2019-02-15T08:16:56.540Z,21.00
2019-02-15T08:19:58.474Z,20.69
2019-02-15T08:23:00.492Z,20.26
2019-02-15T08:26:02.480Z,20.07
2019-02-15T08:29:04.423Z,19.80
2019-02-15T08:32:06.435Z,19.08
2019-02-15T08:35:09.539Z,19.08
2019-02-15T08:38:12.709Z,18.62
2019-02-15T08:41:14.606Z,18.19
2019-02-15T08:44:16.592Z,17.84
2019-02-15T08:47:20.923Z,17.40
2019-02-15T08:50:23.485Z,16.98
2019-02-15T08:53:25.458Z,17.49
2019-02-15T08:56:30.748Z,17.49
2019-02-15T08:59:32.706Z,17.74
2019-02-15T09:02:34.643Z,20.30
2019-02-15T09:05:36.575Z,23.95
2019-02-15T09:08:38.513Z,27.07
2019-02-15T09:11:40.417Z,29.48
2019-02-15T09:14:42.372Z,31.13
2019-02-15T09:17:44.281Z,32.36
2019-02-15T09:20:46.232Z,33.76
2019-02-15T09:23:48.134Z,34.44
2019-02-15T09:26:50.102Z,34.75
2019-02-15T09:29:51.996Z,35.03
2019-02-15T09:32:53.900Z,35.39
2019-02-15T09:35:55.793Z,35.73
2019-02-15T09:38:57.774Z,36.30
2019-02-15T09:41:59.739Z,36.36
2019-02-15T09:45:01.712Z,36.60
2019-02-15T09:48:03.571Z,36.97
2019-02-15T09:51:05.562Z,37.23
2019-02-15T09:54:08.670Z,37.52
2019-02-15T09:57:10.836Z,37.50
2019-02-15T10:00:12.912Z,37.67
2019-02-15T10:03:14.876Z,37.91
2019-02-15T10:06:16.788Z,37.78
2019-02-15T10:09:19.904Z,37.92
2019-02-15T10:12:21.851Z,38.35
2019-02-15T10:15:23.815Z,38.31
2019-02-15T10:18:25.726Z,38.58
2019-02-15T10:21:27.938Z,39.08
2019-02-15T10:24:29.872Z,38.89
2019-02-15T10:27:31.989Z,38.72
2019-02-15T10:30:33.863Z,38.75
2019-02-15T10:33:36.321Z,38.89
2019-02-15T10:36:38.367Z,38.96
2019-02-15T10:39:40.538Z,39.05
2019-02-15T10:42:42.528Z,39.42
2019-02-15T10:45:44.446Z,39.02
2019-02-15T10:48:46.391Z,39.07
2019-02-15T10:51:48.316Z,39.14
2019-02-15T10:54:50.198Z,39.18
2019-02-15T10:57:52.430Z,39.15
2019-02-15T11:00:54.429Z,39.28
2019-02-15T11:03:56.514Z,39.44
2019-02-15T11:06:58.470Z,39.26
2019-02-15T11:10:00.470Z,39.39
2019-02-15T11:13:03.534Z,39.31
2019-02-15T11:16:05.484Z,39.55
2019-02-15T11:19:07.405Z,39.36
2019-02-15T11:22:09.374Z,39.58
2019-02-15T11:25:11.322Z,39.32
2019-02-15T11:28:13.291Z,39.16
2019-02-15T11:31:16.947Z,39.17
2019-02-15T11:34:19.159Z,39.33
2019-02-15T11:37:21.117Z,39.25
2019-02-15T11:40:23.164Z,39.21
2019-02-15T11:43:25.660Z,39.02
2019-02-15T11:46:27.617Z,39.22
2019-02-15T11:49:29.641Z,38.97
2019-02-15T11:52:31.679Z,38.73
2019-02-15T11:55:33.575Z,38.45
2019-02-15T11:58:35.885Z,38.71
2019-02-15T12:01:37.771Z,38.59
2019-02-15T12:04:39.676Z,38.35
2019-02-15T12:07:41.644Z,38.27
2019-02-15T12:10:43.602Z,38.18
2019-02-15T12:13:45.461Z,38.28
2019-02-15T12:16:47.589Z,38.42
2019-02-15T12:19:49.629Z,38.45
2019-02-15T12:22:51.617Z,38.97
2019-02-15T12:25:53.483Z,38.52
2019-02-15T12:28:55.438Z,38.63
2019-02-15T12:31:57.403Z,38.60
2019-02-15T12:34:59.403Z,38.97
2019-02-15T12:38:01.308Z,39.34
2019-02-15T12:41:03.311Z,39.11
2019-02-15T12:44:05.237Z,38.20
2019-02-15T12:47:14.838Z,38.51
2019-02-15T12:50:14.929Z,38.58
2019-02-15T12:53:16.892Z,38.02
2019-02-15T12:56:18.915Z,37.58
2019-02-15T12:59:20.944Z,37.82
2019-02-15T13:02:22.896Z,37.68
2019-02-15T13:05:24.766Z,37.64
2019-02-15T13:08:26.780Z,37.78
2019-02-15T13:11:28.721Z,38.10
2019-02-15T13:14:30.669Z,37.91
2019-02-15T13:17:32.661Z,38.18
2019-02-15T13:20:34.663Z,38.23
2019-02-15T13:23:36.569Z,38.49
2019-02-15T13:26:38.799Z,38.21
2019-02-15T13:29:40.963Z,38.12
2019-02-15T13:32:43.066Z,38.28
2019-02-15T13:35:44.934Z,37.83
2019-02-15T13:38:47.004Z,38.08
2019-02-15T13:41:48.935Z,38.41
2019-02-15T13:44:50.881Z,38.36
2019-02-15T13:47:52.893Z,37.64
2019-02-15T13:50:54.991Z,37.17
2019-02-15T13:53:56.893Z,37.49
2019-02-15T13:56:58.987Z,37.32
2019-02-15T14:00:01.058Z,37.17
2019-02-15T14:03:03.391Z,37.11
2019-02-15T14:06:05.284Z,36.91
2019-02-15T14:09:08.354Z,36.82
2019-02-15T14:12:10.308Z,36.79
2019-02-15T14:15:12.658Z,36.85
2019-02-15T14:18:15.714Z,37.01
2019-02-15T14:21:17.696Z,37.13
2019-02-15T14:24:19.620Z,36.92
2019-02-15T14:27:21.671Z,37.00
2019-02-15T14:30:23.730Z,36.95
2019-02-15T14:33:25.878Z,37.24
2019-02-15T14:36:27.953Z,37.21
2019-02-15T14:39:29.950Z,37.43
2019-02-15T14:42:31.854Z,37.57
2019-02-15T14:45:33.751Z,37.35
2019-02-15T14:48:35.606Z,37.45
2019-02-15T14:51:37.767Z,37.86
2019-02-15T14:54:40.237Z,37.95
2019-02-15T14:57:42.463Z,38.07
2019-02-15T15:00:44.709Z,38.01
2019-02-15T15:03:47.145Z,38.05
2019-02-15T15:06:49.065Z,38.35
2019-02-15T15:09:51.474Z,38.45
2019-02-15T15:12:54.833Z,38.79
2019-02-15T15:15:56.757Z,39.00
2019-02-15T15:18:58.665Z,39.16
2019-02-15T15:22:03.511Z,39.29
2019-02-15T15:25:08.461Z,39.54
2019-02-15T15:28:10.570Z,39.90
2019-02-15T15:31:12.819Z,40.55
2019-02-15T15:34:16.195Z,41.13
2019-02-15T15:37:18.082Z,41.37
2019-02-15T15:40:19.995Z,41.48
2019-02-15T15:43:22.059Z,41.80
2019-02-15T15:46:24.109Z,42.12
2019-02-15T15:49:27.963Z,42.36
2019-02-15T15:52:30.081Z,42.64
2019-02-15T15:55:32.027Z,42.86
2019-02-15T15:58:35.994Z,42.93
2019-02-15T16:01:38.097Z,43.24
2019-02-15T16:04:41.886Z,43.79
2019-02-15T16:07:44.167Z,44.27
2019-02-15T16:10:46.513Z,44.65
2019-02-15T16:13:48.954Z,44.93
2019-02-15T16:16:51.043Z,45.01
2019-02-15T16:19:53.090Z,45.10
2019-02-15T16:22:55.201Z,45.13
2019-02-15T16:25:57.240Z,45.10
2019-02-15T16:28:59.182Z,45.13
2019-02-15T16:32:02.859Z,45.24
2019-02-15T16:35:05.692Z,45.38
2019-02-15T16:38:08.024Z,45.51
2019-02-15T16:41:10.359Z,45.74
2019-02-15T16:44:12.746Z,45.97
2019-02-15T16:47:14.881Z,46.05
2019-02-15T16:50:17.232Z,46.09
2019-02-15T16:53:21.112Z,46.15
2019-02-15T16:56:23.197Z,46.27
2019-02-15T16:59:25.128Z,46.44
2019-02-15T17:02:27.158Z,46.53
2019-02-15T17:05:29.073Z,46.48
2019-02-15T17:08:31.094Z,46.56
2019-02-15T17:11:34.217Z,46.55
2019-02-15T17:14:36.152Z,46.66
2019-02-15T17:17:38.138Z,46.76
2019-02-15T17:20:42.195Z,46.91
2019-02-15T17:23:45.325Z,46.97
2019-02-15T17:26:47.313Z,47.01
2019-02-15T17:29:51.114Z,47.04
2019-02-15T17:32:53.495Z,47.32
2019-02-15T17:35:55.525Z,47.53
2019-02-15T17:38:59.097Z,47.80
2019-02-15T17:42:01.079Z,47.98
2019-02-15T17:45:05.816Z,48.07
2019-02-15T17:48:07.822Z,48.24
2019-02-15T17:51:10.008Z,48.47
2019-02-15T17:54:13.118Z,48.64
2019-02-15T17:57:16.443Z,48.71
2019-02-15T18:00:20.520Z,48.72
2019-02-15T18:03:23.155Z,48.76
2019-02-15T18:06:25.552Z,48.87
2019-02-15T18:09:29.354Z,48.92
2019-02-15T18:12:31.935Z,49.00
2019-02-15T18:15:34.288Z,49.02
2019-02-15T18:18:37.764Z,49.08
2019-02-15T18:21:41.535Z,49.20
2019-02-15T18:24:44.125Z,49.39
2019-02-15T18:27:47.494Z,49.66
2019-02-15T18:30:51.254Z,49.77
2019-02-15T18:33:53.652Z,49.84
2019-02-15T18:36:55.645Z,49.88
2019-02-15T18:39:57.563Z,49.93
2019-02-15T18:42:59.541Z,49.98
2019-02-15T18:46:01.805Z,50.00
2019-02-15T18:49:04.109Z,50.11
2019-02-15T18:52:06.167Z,50.16
2019-02-15T18:55:11.980Z,50.11
2019-02-15T18:58:15.619Z,50.02
2019-02-15T19:01:20.842Z,49.95
2019-02-15T19:04:23.116Z,49.97
2019-02-15T19:07:25.999Z,50.03
2019-02-15T19:10:30.718Z,50.22
2019-02-15T19:13:32.957Z,50.43
2019-02-15T19:16:34.961Z,50.63
2019-02-15T19:19:36.918Z,50.94
2019-02-15T19:22:39.191Z,51.17
2019-02-15T19:25:42.935Z,51.31
2019-02-15T19:28:44.918Z,51.51
2019-02-15T19:31:49.830Z,51.57
2019-02-15T19:34:51.755Z,51.72
2019-02-15T19:37:59.679Z,51.95
2019-02-15T19:41:04.177Z,52.19
2019-02-15T19:44:08.972Z,52.41
2019-02-15T19:47:10.930Z,52.51
2019-02-15T19:50:16.673Z,52.63
2019-02-15T19:53:20.138Z,52.66
2019-02-15T19:56:23.554Z,52.79
2019-02-15T19:59:30.641Z,52.98
2019-02-15T20:02:35.145Z,53.05
2019-02-15T20:05:37.560Z,53.07
2019-02-15T20:08:40.951Z,53.22
2019-02-15T20:11:46.560Z,53.32
2019-02-15T20:14:50.292Z,53.53
2019-02-15T20:17:53.064Z,53.59
2019-02-15T20:20:56.262Z,53.48
2019-02-15T20:24:02.011Z,53.39
2019-02-15T20:27:03.930Z,53.23
2019-02-15T20:30:12.292Z,53.09
2019-02-15T20:33:14.273Z,52.95
2019-02-15T20:36:18.615Z,52.79
2019-02-15T20:39:21.599Z,52.61
2019-02-15T20:42:24.435Z,52.45
2019-02-15T20:45:26.590Z,52.40
2019-02-15T20:48:28.717Z,52.29
2019-02-15T20:51:30.642Z,52.18
2019-02-15T20:54:33.727Z,52.01
2019-02-15T20:57:35.690Z,51.87
2019-02-15T21:00:37.960Z,51.83
2019-02-15T21:03:40.309Z,51.73
2019-02-15T21:06:44.264Z,51.69
2019-02-15T21:09:46.840Z,51.81
2019-02-15T21:12:48.692Z,52.00
2019-02-15T21:15:52.570Z,52.08
2019-02-15T21:18:56.403Z,52.16
2019-02-15T21:22:02.460Z,52.22
2019-02-15T21:25:08.061Z,52.31
2019-02-15T21:28:12.998Z,52.31
2019-02-15T21:31:15.226Z,52.34
2019-02-15T21:34:17.200Z,52.33
2019-02-15T21:37:19.510Z,52.36
2019-02-15T21:40:23.245Z,52.34
2019-02-15T21:43:25.201Z,52.35
2019-02-15T21:46:27.172Z,52.29
2019-02-15T21:49:29.204Z,52.34
2019-02-15T21:52:31.192Z,52.27
2019-02-15T21:55:33.458Z,52.23
2019-02-15T21:58:35.396Z,52.10
2019-02-15T22:01:37.340Z,51.95
2019-02-15T22:04:39.317Z,51.84
2019-02-15T22:07:41.242Z,51.85
2019-02-15T22:10:43.791Z,51.92
2019-02-15T22:13:46.969Z,51.98
2019-02-15T22:16:48.863Z,51.95
2019-02-15T22:19:50.774Z,51.91
2019-02-15T22:22:52.713Z,51.92
2019-02-15T22:25:54.620Z,51.90
2019-02-15T22:28:56.683Z,51.85
2019-02-15T22:31:58.559Z,51.76
2019-02-15T22:35:00.804Z,51.65
2019-02-15T22:38:03.658Z,51.50
2019-02-15T22:41:14.664Z,51.37
2019-02-15T22:44:16.846Z,51.23
2019-02-15T22:47:19.894Z,51.17
2019-02-15T22:50:21.892Z,51.08
2019-02-15T22:53:23.803Z,51.01
2019-02-15T22:56:27.611Z,51.03
2019-02-15T22:59:29.531Z,50.90
2019-02-15T23:02:31.475Z,50.85
2019-02-15T23:05:33.591Z,50.81
2019-02-15T23:08:35.421Z,51.03
2019-02-15T23:11:37.414Z,51.37
2019-02-15T23:14:39.299Z,51.76
2019-02-15T23:17:41.236Z,51.83
2019-02-15T23:20:45.148Z,51.94
2019-02-15T23:23:46.951Z,52.19
2019-02-15T23:26:48.830Z,52.24
2019-02-15T23:29:50.907Z,52.28
2019-02-15T23:32:52.854Z,52.26
2019-02-15T23:35:54.854Z,52.22
2019-02-15T23:38:56.735Z,52.20
2019-02-15T23:41:58.698Z,52.08
2019-02-15T23:45:00.658Z,51.93
2019-02-15T23:48:02.537Z,52.04
2019-02-15T23:51:04.506Z,52.39
2019-02-15T23:54:06.399Z,52.58
2019-02-15T23:57:09.349Z,52.78
